createdAt,value
2023-04-27T00:01:36.928Z,93.70
2023-04-27T00:04:07.454Z,93.80
2023-04-27T00:06:34.400Z,94.00
2023-04-27T00:09:01.041Z,93.60
2023-04-27T00:11:27.659Z,93.90
2023-04-27T00:13:54.251Z,93.90
2023-04-27T00:16:20.881Z,94.10
2023-04-27T00:18:47.662Z,93.90
2023-04-27T00:21:14.534Z,94.00
2023-04-27T00:23:41.138Z,94.20
2023-04-27T00:26:07.751Z,94.30
2023-04-27T00:28:34.308Z,94.40
2023-04-27T00:31:03.364Z,94.10
2023-04-27T00:33:30.063Z,94.20
2023-04-27T00:36:02.490Z,94.30
2023-04-27T00:38:29.689Z,94.30
2023-04-27T00:41:06.032Z,94.60
2023-04-27T00:43:33.377Z,94.40
2023-04-27T00:46:00.537Z,94.10
2023-04-27T00:48:27.487Z,94.30
2023-04-27T00:50:54.571Z,94.40
2023-04-27T00:53:21.556Z,94.30
2023-04-27T00:55:49.422Z,94.50
2023-04-27T00:58:16.260Z,94.30
2023-04-27T01:00:43.101Z,94.40
2023-04-27T01:03:10.039Z,94.30
2023-04-27T01:05:37.984Z,94.30
2023-04-27T01:08:05.197Z,94.30
2023-04-27T01:10:31.803Z,94.30
2023-04-27T01:12:58.531Z,94.30
2023-04-27T01:15:25.237Z,94.50
2023-04-27T01:17:58.540Z,94.20
2023-04-27T01:20:25.977Z,94.20
2023-04-27T01:22:53.541Z,94.50
2023-04-27T01:25:20.397Z,94.20
2023-04-27T01:27:47.020Z,94.20
2023-04-27T01:30:13.831Z,94.30
2023-04-27T01:32:40.519Z,94.30
2023-04-27T01:35:07.676Z,94.30
2023-04-27T01:37:35.083Z,94.60
2023-04-27T01:40:01.843Z,94.30
2023-04-27T01:42:29.062Z,94.40
2023-04-27T01:44:55.732Z,94.40
2023-04-27T01:47:22.317Z,94.50
2023-04-27T01:49:48.926Z,94.40
2023-04-27T01:52:15.647Z,94.50
2023-04-27T01:54:42.280Z,94.80
2023-04-27T01:57:09.739Z,94.60
2023-04-27T01:59:36.359Z,94.60
2023-04-27T02:02:04.100Z,94.90
2023-04-27T02:04:30.922Z,94.80
2023-04-27T02:06:58.070Z,94.70
2023-04-27T02:09:24.794Z,94.80
2023-04-27T02:11:51.390Z,94.60
2023-04-27T02:14:18.010Z,94.60
2023-04-27T02:16:47.015Z,94.80
2023-04-27T02:19:13.754Z,94.80
2023-04-27T02:21:41.022Z,94.80
2023-04-27T02:24:07.666Z,94.40
2023-04-27T02:26:34.332Z,94.60
2023-04-27T02:29:03.832Z,94.30
2023-04-27T02:31:31.155Z,94.10
2023-04-27T02:33:57.835Z,94.00
2023-04-27T02:36:25.300Z,93.90
2023-04-27T02:38:55.555Z,94.30
2023-04-27T02:41:22.228Z,93.90
2023-04-27T02:43:51.367Z,94.20
2023-04-27T02:46:18.051Z,94.30
2023-04-27T02:48:44.660Z,94.20
2023-04-27T02:51:11.338Z,94.20
2023-04-27T02:53:37.961Z,94.30
2023-04-27T02:56:04.867Z,94.40
2023-04-27T02:58:31.802Z,94.30
2023-04-27T03:00:58.453Z,94.40
2023-04-27T03:03:25.297Z,94.50
2023-04-27T03:05:52.016Z,94.40
2023-04-27T03:08:18.617Z,94.50
2023-04-27T03:10:45.242Z,94.40
2023-04-27T03:13:11.942Z,94.60
2023-04-27T03:15:38.590Z,94.70
2023-04-27T03:18:06.081Z,94.50
2023-04-27T03:20:33.868Z,94.60
2023-04-27T03:23:00.486Z,94.60
2023-04-27T03:25:27.648Z,94.80
2023-04-27T03:27:54.286Z,94.70
2023-04-27T03:30:22.869Z,94.50
2023-04-27T03:32:49.569Z,94.60
2023-04-27T03:35:16.364Z,94.40
2023-04-27T03:37:46.105Z,94.40
2023-04-27T03:40:14.483Z,94.50
2023-04-27T03:42:41.293Z,94.40
2023-04-27T03:45:08.899Z,94.40
2023-04-27T03:47:35.576Z,94.60
2023-04-27T03:50:02.239Z,94.50
2023-04-27T03:52:28.843Z,94.60
2023-04-27T03:54:55.431Z,94.60
2023-04-27T03:57:22.095Z,94.60
2023-04-27T03:59:49.673Z,94.70
2023-04-27T04:02:17.237Z,94.70
2023-04-27T04:04:44.090Z,94.90
2023-04-27T04:07:13.084Z,94.80
2023-04-27T04:09:39.892Z,94.70
2023-04-27T04:12:06.678Z,94.80
2023-04-27T04:14:33.428Z,94.70
2023-04-27T04:17:00.595Z,94.70
2023-04-27T04:19:27.232Z,94.60
2023-04-27T04:21:54.595Z,94.80
2023-04-27T04:24:21.609Z,94.80
2023-04-27T04:26:48.504Z,94.70
2023-04-27T04:29:15.644Z,94.80
2023-04-27T04:31:42.656Z,94.80
2023-04-27T04:34:10.022Z,94.90
2023-04-27T04:36:36.686Z,94.80
2023-04-27T04:39:04.089Z,94.90
2023-04-27T04:41:32.274Z,95.00
2023-04-27T04:43:59.586Z,94.80
2023-04-27T04:46:26.407Z,94.90
2023-04-27T04:48:54.821Z,95.00
2023-04-27T04:51:21.719Z,94.90
2023-04-27T04:53:48.360Z,95.20
2023-04-27T04:56:16.871Z,95.20
2023-04-27T04:58:43.522Z,95.20
2023-04-27T05:01:10.407Z,95.00
2023-04-27T05:03:37.265Z,95.10
2023-04-27T05:06:04.105Z,95.20
2023-04-27T05:08:30.754Z,95.00
2023-04-27T05:10:57.426Z,95.20
2023-04-27T05:13:27.893Z,95.30
2023-04-27T05:15:54.528Z,95.00
2023-04-27T05:18:21.363Z,95.10
2023-04-27T05:20:47.955Z,95.20
2023-04-27T05:23:14.523Z,95.20
2023-04-27T05:25:44.107Z,95.20
2023-04-27T05:28:11.011Z,95.10
2023-04-27T05:30:37.753Z,95.20
2023-04-27T05:33:05.226Z,95.10
2023-04-27T05:35:35.391Z,95.30
2023-04-27T05:38:04.614Z,95.20
2023-04-27T05:40:31.197Z,95.20
2023-04-27T05:42:57.836Z,95.10
2023-04-27T05:45:27.577Z,95.20
2023-04-27T05:47:54.262Z,95.40
2023-04-27T05:50:21.025Z,95.40
2023-04-27T05:52:47.601Z,95.50
2023-04-27T05:55:14.192Z,95.60
2023-04-27T05:57:41.293Z,95.20
2023-04-27T06:00:10.463Z,95.30
2023-04-27T06:02:40.292Z,95.20
2023-04-27T06:05:07.248Z,95.30
2023-04-27T06:07:33.884Z,95.40
2023-04-27T06:10:00.524Z,95.40
2023-04-27T06:12:27.234Z,95.30
2023-04-27T06:14:53.814Z,95.10
2023-04-27T06:17:21.786Z,94.90
2023-04-27T06:19:48.432Z,95.20
2023-04-27T06:22:15.032Z,95.20
2023-04-27T06:24:42.374Z,95.20
2023-04-27T06:27:08.958Z,95.10
2023-04-27T06:29:35.560Z,95.00
2023-04-27T06:32:05.716Z,94.80
2023-04-27T06:34:33.868Z,95.10
2023-04-27T06:37:00.537Z,95.00
2023-04-27T06:39:27.144Z,95.20
2023-04-27T06:41:53.726Z,95.20
2023-04-27T06:44:20.363Z,95.40
2023-04-27T06:46:46.970Z,95.10
2023-04-27T06:49:13.746Z,97.30
2023-04-27T06:51:41.076Z,94.60
2023-04-27T06:54:08.285Z,95.10
2023-04-27T06:56:34.886Z,94.90
2023-04-27T06:59:01.702Z,95.10
2023-04-27T07:01:28.346Z,95.40
2023-04-27T07:03:55.098Z,95.10
2023-04-27T07:06:22.395Z,95.10
2023-04-27T07:08:48.964Z,94.50
2023-04-27T07:11:16.337Z,94.80
2023-04-27T07:13:43.290Z,94.60
2023-04-27T07:16:10.048Z,94.90
2023-04-27T07:18:36.705Z,94.60
2023-04-27T07:21:03.535Z,94.40
2023-04-27T07:23:30.166Z,94.70
2023-04-27T07:25:57.756Z,94.80
2023-04-27T07:28:24.433Z,95.20
2023-04-27T07:30:51.820Z,94.80
2023-04-27T07:33:20.319Z,94.90
2023-04-27T07:35:46.987Z,95.50
2023-04-27T07:38:13.597Z,95.00
2023-04-27T07:40:40.696Z,94.90
2023-04-27T07:43:09.289Z,94.60
2023-04-27T07:45:37.280Z,94.70
2023-04-27T07:48:04.409Z,95.90
2023-04-27T07:50:31.641Z,95.50
2023-04-27T07:52:59.095Z,93.70
2023-04-27T07:55:26.069Z,93.70
2023-04-27T07:57:53.836Z,93.80
2023-04-27T08:00:21.137Z,93.70
2023-04-27T08:02:48.022Z,93.50
2023-04-27T08:05:15.221Z,93.80
2023-04-27T08:07:44.934Z,94.00
2023-04-27T08:10:12.256Z,93.50
2023-04-27T08:12:39.508Z,98.00
2023-04-27T08:15:07.497Z,97.00
2023-04-27T08:17:35.010Z,95.00
2023-04-27T08:20:01.690Z,92.90
2023-04-27T08:22:28.286Z,92.90
2023-04-27T08:24:54.905Z,93.00
2023-04-27T08:27:21.589Z,93.00
2023-04-27T08:29:48.917Z,92.70
2023-04-27T08:32:15.912Z,93.20
2023-04-27T08:34:44.697Z,93.20
2023-04-27T08:37:11.606Z,93.20
2023-04-27T08:39:38.410Z,92.90
2023-04-27T08:42:12.215Z,93.10
2023-04-27T08:44:40.139Z,92.60
2023-04-27T08:47:07.654Z,92.70
2023-04-27T08:49:34.676Z,93.40
2023-04-27T08:52:02.114Z,92.80
2023-04-27T08:54:28.750Z,97.80
2023-04-27T08:56:55.417Z,95.00
2023-04-27T08:59:22.104Z,97.20
2023-04-27T09:01:49.782Z,92.80
2023-04-27T09:04:17.803Z,99.70
2023-04-27T09:06:44.812Z,94.20
2023-04-27T09:09:23.327Z,91.90
2023-04-27T09:11:49.913Z,91.20
2023-04-27T09:14:19.965Z,90.90
2023-04-27T09:16:57.648Z,90.90
2023-04-27T09:19:29.651Z,90.30
2023-04-27T09:22:07.444Z,89.90
2023-04-27T09:24:34.124Z,87.10
2023-04-27T09:27:01.803Z,87.30
2023-04-27T09:29:38.524Z,85.90
2023-04-27T09:32:17.247Z,87.30
2023-04-27T09:34:44.687Z,87.50
2023-04-27T09:37:12.070Z,86.60
2023-04-27T09:39:38.943Z,91.90
2023-04-27T09:42:05.828Z,89.20
2023-04-27T09:44:33.192Z,89.40
2023-04-27T09:47:00.851Z,89.90
2023-04-27T09:49:31.235Z,89.80
2023-04-27T09:51:58.778Z,89.60
2023-04-27T09:54:29.972Z,90.10
2023-04-27T09:57:23.614Z,90.00
2023-04-27T10:00:11.159Z,89.60
2023-04-27T10:02:53.781Z,90.70
2023-04-27T10:06:17.570Z,87.70
2023-04-27T10:08:45.407Z,88.60
2023-04-27T10:11:17.452Z,85.10
2023-04-27T10:13:55.300Z,85.70
2023-04-27T10:16:22.520Z,85.90
2023-04-27T10:18:55.393Z,85.70
2023-04-27T10:21:22.614Z,93.70
2023-04-27T10:23:52.489Z,88.70
2023-04-27T10:26:27.421Z,87.80
2023-04-27T10:29:08.348Z,87.00
2023-04-27T10:31:35.708Z,88.70
2023-04-27T10:34:09.855Z,89.60
2023-04-27T10:36:40.806Z,86.10
2023-04-27T10:39:36.222Z,87.20
2023-04-27T10:42:11.743Z,85.80
2023-04-27T10:44:39.162Z,85.50
2023-04-27T10:47:16.369Z,87.00
2023-04-27T10:49:43.492Z,85.00
2023-04-27T10:52:10.226Z,84.00
2023-04-27T10:54:37.717Z,85.00
2023-04-27T10:57:10.819Z,86.70
2023-04-27T10:59:52.777Z,84.20
2023-04-27T11:02:28.186Z,85.20
2023-04-27T11:04:56.369Z,84.50
2023-04-27T11:07:28.297Z,85.00
2023-04-27T11:09:55.601Z,84.00
2023-04-27T11:12:22.481Z,85.60
2023-04-27T11:14:49.138Z,85.70
2023-04-27T11:17:15.735Z,86.20
2023-04-27T11:19:48.862Z,87.00
2023-04-27T11:22:19.090Z,87.10
2023-04-27T11:24:50.568Z,84.40
2023-04-27T11:27:19.911Z,86.00
2023-04-27T11:29:46.772Z,87.20
2023-04-27T11:32:23.481Z,93.50
2023-04-27T11:34:53.726Z,88.80
2023-04-27T11:37:25.500Z,89.20
2023-04-27T11:39:54.512Z,88.90
2023-04-27T11:42:25.391Z,93.30
2023-04-27T11:45:01.070Z,92.30
2023-04-27T11:47:29.493Z,92.20
2023-04-27T11:49:57.769Z,92.90
2023-04-27T11:52:35.753Z,96.90
2023-04-27T11:55:06.040Z,95.30
2023-04-27T11:57:34.202Z,97.80
2023-04-27T12:00:09.037Z,95.20
2023-04-27T12:02:41.116Z,96.60
2023-04-27T12:05:09.539Z,96.40
2023-04-27T12:07:36.286Z,90.80
2023-04-27T12:10:02.980Z,91.70
2023-04-27T12:12:29.700Z,90.70
2023-04-27T12:14:57.873Z,92.50
2023-04-27T12:17:24.476Z,92.60
2023-04-27T12:19:51.232Z,90.70
2023-04-27T12:22:17.958Z,90.60
2023-04-27T12:24:44.594Z,94.60
2023-04-27T12:27:12.086Z,91.20
2023-04-27T12:29:39.099Z,94.80
2023-04-27T12:32:06.032Z,95.00
2023-04-27T12:34:32.897Z,90.00
2023-04-27T12:36:59.510Z,90.00
2023-04-27T12:39:26.694Z,89.40
2023-04-27T12:41:53.948Z,94.30
2023-04-27T12:44:21.285Z,89.40
2023-04-27T12:46:48.766Z,90.40
2023-04-27T12:49:15.752Z,92.80
2023-04-27T12:51:42.907Z,96.20
2023-04-27T12:54:11.220Z,89.40
2023-04-27T12:56:38.082Z,88.70
2023-04-27T12:59:06.123Z,88.50
2023-04-27T13:01:33.239Z,92.30
2023-04-27T13:04:02.451Z,94.50
2023-04-27T13:06:31.169Z,91.20
2023-04-27T13:08:58.857Z,90.00
2023-04-27T13:11:26.512Z,92.90
2023-04-27T13:13:54.771Z,90.10
2023-04-27T13:16:22.699Z,88.00
2023-04-27T13:18:52.077Z,90.00
2023-04-27T13:21:19.023Z,89.80
2023-04-27T13:23:45.893Z,89.70
2023-04-27T13:26:12.742Z,89.60
2023-04-27T13:28:40.704Z,89.20
2023-04-27T13:31:07.543Z,89.40
2023-04-27T13:33:39.962Z,90.80
2023-04-27T13:36:07.126Z,93.00
2023-04-27T13:38:33.785Z,91.20
2023-04-27T13:41:00.642Z,93.20
2023-04-27T13:43:27.358Z,93.90
2023-04-27T13:45:55.658Z,92.50
2023-04-27T13:48:22.808Z,92.40
2023-04-27T13:50:49.527Z,92.00
2023-04-27T13:53:16.727Z,91.80
2023-04-27T13:55:44.116Z,91.40
2023-04-27T13:58:11.195Z,92.10
2023-04-27T14:00:38.239Z,91.80
2023-04-27T14:03:05.259Z,91.70
2023-04-27T14:05:32.123Z,92.20
2023-04-27T14:07:58.749Z,91.70
2023-04-27T14:10:26.484Z,91.80
2023-04-27T14:12:53.153Z,91.80
2023-04-27T14:15:19.881Z,91.70
2023-04-27T14:17:46.552Z,91.40
2023-04-27T14:20:13.244Z,91.90
2023-04-27T14:22:39.898Z,91.90
2023-04-27T14:25:07.108Z,91.10
2023-04-27T14:27:33.720Z,90.40
2023-04-27T14:30:00.508Z,90.30
2023-04-27T14:32:27.550Z,90.50
2023-04-27T14:34:54.217Z,90.60
2023-04-27T14:37:20.883Z,90.80
2023-04-27T14:39:47.492Z,90.40
2023-04-27T14:42:14.075Z,89.90
2023-04-27T14:44:40.926Z,90.00
2023-04-27T14:47:07.618Z,88.80
2023-04-27T14:49:34.364Z,88.70
2023-04-27T14:52:03.994Z,89.40
2023-04-27T14:54:30.716Z,87.90
2023-04-27T14:56:58.698Z,87.90
2023-04-27T14:59:25.778Z,92.20
2023-04-27T15:01:52.548Z,89.40
2023-04-27T15:04:19.701Z,87.90
2023-04-27T15:06:47.012Z,86.80
2023-04-27T15:09:13.965Z,89.40
2023-04-27T15:11:41.423Z,90.90
2023-04-27T15:14:08.644Z,87.80
2023-04-27T15:16:35.488Z,87.60
2023-04-27T15:19:02.273Z,88.00
2023-04-27T15:21:30.314Z,87.50
2023-04-27T15:23:57.121Z,88.70
2023-04-27T15:26:25.374Z,88.00
2023-04-27T15:28:52.001Z,87.80
2023-04-27T15:31:18.807Z,88.60
2023-04-27T15:33:45.628Z,90.00
2023-04-27T15:36:12.663Z,91.00
2023-04-27T15:38:39.623Z,90.00
2023-04-27T15:41:06.527Z,90.30
2023-04-27T15:43:33.118Z,90.60
2023-04-27T15:46:02.803Z,89.70
2023-04-27T15:48:29.520Z,90.20
2023-04-27T15:50:56.179Z,90.30
2023-04-27T15:53:23.141Z,91.10
2023-04-27T15:55:49.771Z,90.70
2023-04-27T15:58:16.416Z,91.30
2023-04-27T16:00:43.291Z,91.40
2023-04-27T16:03:11.389Z,91.60
2023-04-27T16:05:38.434Z,91.30
2023-04-27T16:08:05.213Z,91.50
2023-04-27T16:10:32.153Z,91.70
2023-04-27T16:12:58.846Z,91.80
2023-04-27T16:15:25.701Z,91.70
2023-04-27T16:17:52.510Z,92.00
2023-04-27T16:20:19.166Z,92.30
2023-04-27T16:22:45.985Z,92.70
2023-04-27T16:25:12.810Z,92.20
2023-04-27T16:27:39.660Z,92.00
2023-04-27T16:30:07.368Z,91.80
2023-04-27T16:32:35.568Z,92.20
2023-04-27T16:35:04.830Z,92.20
2023-04-27T16:37:31.538Z,91.50
2023-04-27T16:40:05.797Z,91.40
2023-04-27T16:42:32.668Z,91.60
2023-04-27T16:45:02.027Z,92.80
2023-04-27T16:47:31.246Z,95.10
2023-04-27T16:49:58.189Z,92.10
2023-04-27T16:52:25.293Z,91.90
2023-04-27T16:54:52.023Z,92.20
2023-04-27T16:57:19.934Z,92.30
2023-04-27T16:59:46.714Z,92.90
2023-04-27T17:02:23.753Z,92.40
2023-04-27T17:04:51.130Z,93.00
2023-04-27T17:07:17.865Z,95.30
2023-04-27T17:09:44.493Z,93.40
2023-04-27T17:12:13.161Z,92.20
2023-04-27T17:14:39.833Z,92.10
2023-04-27T17:17:06.698Z,94.40
2023-04-27T17:19:33.322Z,92.40
2023-04-27T17:22:00.066Z,92.90
2023-04-27T17:24:26.883Z,94.00
2023-04-27T17:26:53.844Z,93.00
2023-04-27T17:29:21.570Z,92.40
2023-04-27T17:31:49.132Z,92.40
2023-04-27T17:34:16.187Z,92.70
2023-04-27T17:36:42.885Z,93.00
2023-04-27T17:39:09.560Z,92.80
2023-04-27T17:41:37.232Z,92.80
2023-04-27T17:44:04.577Z,93.20
2023-04-27T17:46:31.471Z,93.40
2023-04-27T17:48:58.139Z,93.30
2023-04-27T17:51:24.819Z,93.30
2023-04-27T17:53:51.469Z,93.60
2023-04-27T17:56:18.089Z,93.50
2023-04-27T17:58:44.690Z,93.50
2023-04-27T18:01:13.241Z,94.20
2023-04-27T18:03:41.806Z,93.70
2023-04-27T18:06:08.916Z,94.10
2023-04-27T18:08:35.618Z,95.20
2023-04-27T18:11:02.254Z,93.60
2023-04-27T18:13:29.146Z,94.30
2023-04-27T18:15:55.818Z,94.40
2023-04-27T18:18:25.103Z,93.30
2023-04-27T18:20:52.149Z,93.30
2023-04-27T18:23:29.876Z,93.70
2023-04-27T18:26:00.105Z,93.60
2023-04-27T18:28:26.735Z,94.00
2023-04-27T18:30:53.325Z,93.50
2023-04-27T18:33:20.996Z,93.60
2023-04-27T18:35:47.780Z,93.80
2023-04-27T18:38:14.384Z,94.10
2023-04-27T18:40:41.184Z,94.10
2023-04-27T18:43:08.312Z,94.10
2023-04-27T18:45:35.016Z,94.00
2023-04-27T18:48:01.785Z,94.20
2023-04-27T18:50:28.512Z,94.50
2023-04-27T18:52:55.119Z,94.50
2023-04-27T18:55:23.930Z,94.50
2023-04-27T18:57:51.015Z,94.50
2023-04-27T19:00:17.677Z,94.60
2023-04-27T19:02:44.309Z,94.70
2023-04-27T19:05:13.582Z,94.80
2023-04-27T19:07:40.790Z,94.80
2023-04-27T19:10:08.317Z,94.70
2023-04-27T19:12:35.781Z,94.80
2023-04-27T19:15:02.617Z,94.80
2023-04-27T19:17:29.311Z,95.00
2023-04-27T19:19:56.058Z,95.00
2023-04-27T19:22:22.705Z,94.90
2023-04-27T19:24:49.303Z,95.10
2023-04-27T19:27:16.104Z,94.90
2023-04-27T19:29:51.227Z,95.00
2023-04-27T19:32:17.990Z,95.10
2023-04-27T19:34:44.605Z,95.10
2023-04-27T19:37:11.295Z,95.30
2023-04-27T19:39:38.582Z,95.30
2023-04-27T19:42:05.254Z,95.40
2023-04-27T19:44:31.861Z,95.00
2023-04-27T19:46:58.475Z,95.20
2023-04-27T19:49:25.351Z,95.00
2023-04-27T19:51:51.958Z,95.00
2023-04-27T19:54:18.676Z,95.00
2023-04-27T19:56:45.472Z,95.30
2023-04-27T19:59:12.159Z,95.30
2023-04-27T20:01:38.797Z,95.30
2023-04-27T20:04:05.565Z,95.40
2023-04-27T20:06:33.209Z,95.30
2023-04-27T20:09:00.040Z,95.30
2023-04-27T20:11:26.636Z,95.10
2023-04-27T20:13:53.214Z,95.30
2023-04-27T20:16:21.344Z,95.20
2023-04-27T20:18:49.558Z,95.30
2023-04-27T20:21:16.279Z,95.30
2023-04-27T20:23:42.873Z,95.30
2023-04-27T20:26:09.489Z,95.40
2023-04-27T20:28:36.106Z,95.30
2023-04-27T20:31:02.708Z,95.40
2023-04-27T20:33:29.320Z,95.40
2023-04-27T20:36:03.446Z,95.40
2023-04-27T20:38:36.948Z,95.70
2023-04-27T20:41:04.565Z,95.30
2023-04-27T20:43:31.427Z,95.30
2023-04-27T20:45:58.067Z,95.60
2023-04-27T20:48:28.269Z,95.70
2023-04-27T20:50:55.422Z,95.70
2023-04-27T20:53:22.068Z,95.60
2023-04-27T20:55:48.987Z,95.70
2023-04-27T20:58:15.581Z,95.60
2023-04-27T21:00:42.190Z,95.50
2023-04-27T21:03:09.040Z,95.60
2023-04-27T21:05:35.706Z,95.60
2023-04-27T21:08:02.281Z,95.80
2023-04-27T21:10:28.873Z,95.50
2023-04-27T21:12:55.602Z,95.70
2023-04-27T21:15:22.335Z,96.00
2023-04-27T21:17:49.048Z,96.10
2023-04-27T21:20:16.177Z,96.00
2023-04-27T21:22:42.788Z,95.90
2023-04-27T21:25:09.633Z,95.90
2023-04-27T21:27:36.386Z,95.80
2023-04-27T21:30:03.105Z,95.90
2023-04-27T21:32:29.738Z,96.00
2023-04-27T21:34:56.355Z,96.20
2023-04-27T21:37:22.937Z,96.10
2023-04-27T21:39:49.589Z,96.00
2023-04-27T21:42:16.424Z,96.00
2023-04-27T21:44:43.058Z,96.00
2023-04-27T21:47:09.682Z,96.40
2023-04-27T21:49:36.345Z,96.30
2023-04-27T21:52:02.994Z,96.20
2023-04-27T21:54:29.618Z,96.20
2023-04-27T21:56:56.245Z,96.00
2023-04-27T21:59:22.816Z,96.10
2023-04-27T22:01:49.485Z,96.10
2023-04-27T22:04:16.989Z,96.10
2023-04-27T22:06:44.633Z,96.20
2023-04-27T22:09:12.172Z,96.10
2023-04-27T22:11:38.837Z,96.10
2023-04-27T22:14:05.682Z,96.00
2023-04-27T22:16:32.285Z,96.10
2023-04-27T22:18:59.647Z,96.10
2023-04-27T22:21:27.348Z,96.00
2023-04-27T22:23:53.973Z,96.00
2023-04-27T22:26:20.742Z,96.10
2023-04-27T22:28:47.306Z,96.30
2023-04-27T22:31:14.078Z,96.70
2023-04-27T22:33:40.798Z,96.30
2023-04-27T22:36:07.850Z,96.10
2023-04-27T22:38:34.432Z,96.10
2023-04-27T22:41:01.034Z,96.00
2023-04-27T22:43:27.626Z,96.00
2023-04-27T22:45:54.203Z,95.90
2023-04-27T22:48:21.113Z,96.00
2023-04-27T22:50:47.693Z,96.00
2023-04-27T22:53:14.293Z,96.00
2023-04-27T22:55:40.948Z,96.10
2023-04-27T22:58:07.545Z,96.00
2023-04-27T23:00:34.263Z,96.10
2023-04-27T23:03:01.086Z,96.10
2023-04-27T23:05:28.950Z,96.10
2023-04-27T23:07:55.633Z,96.20
2023-04-27T23:10:22.545Z,96.20
2023-04-27T23:12:50.613Z,96.40
2023-04-27T23:15:17.352Z,96.40
2023-04-27T23:17:44.122Z,96.50
2023-04-27T23:20:26.668Z,96.30
2023-04-27T23:22:54.481Z,96.30
2023-04-27T23:25:21.427Z,96.40
2023-04-27T23:27:49.969Z,96.20
2023-04-27T23:30:18.398Z,96.30
2023-04-27T23:32:45.025Z,96.20
2023-04-27T23:35:11.718Z,96.20
2023-04-27T23:37:38.381Z,96.30
2023-04-27T23:40:06.239Z,96.30
2023-04-27T23:42:33.149Z,96.40
2023-04-27T23:44:59.784Z,96.30
2023-04-27T23:47:26.447Z,96.30
2023-04-27T23:49:53.093Z,96.30
2023-04-27T23:52:19.665Z,96.20
2023-04-27T23:54:46.277Z,96.10
2023-04-27T23:57:14.775Z,96.30
2023-04-27T23:59:41.385Z,96.30
